createdAt,value
2022-10-06T00:00:05.449Z,101414.78
2022-10-06T00:02:36.249Z,101411.34
2022-10-06T00:05:03.516Z,101417.31
2022-10-06T00:07:30.097Z,101423.84
2022-10-06T00:09:56.617Z,101419.81
2022-10-06T00:12:23.210Z,101422.84
2022-10-06T00:14:49.792Z,101438.03
2022-10-06T00:17:16.419Z,101439.72
2022-10-06T00:19:42.949Z,101442.19
2022-10-06T00:22:09.489Z,101438.66
2022-10-06T00:24:36.026Z,101427.00
2022-10-06T00:27:03.861Z,101433.53
2022-10-06T00:29:30.899Z,101432.72
2022-10-06T00:31:57.697Z,101428.66
2022-10-06T00:34:25.515Z,101433.81
2022-10-06T00:36:52.283Z,101429.47
2022-10-06T00:39:19.999Z,101440.31
2022-10-06T00:41:46.744Z,101433.31
2022-10-06T00:44:13.350Z,101433.31
2022-10-06T00:46:47.234Z,101437.06
2022-10-06T00:49:26.047Z,101436.53
2022-10-06T00:51:56.974Z,101437.34
2022-10-06T00:54:25.110Z,101437.34
2022-10-06T00:56:52.869Z,101445.75
2022-10-06T00:59:20.139Z,101451.44
2022-10-06T01:01:56.907Z,101463.88
2022-10-06T01:04:25.046Z,101463.88
2022-10-06T01:06:56.033Z,101478.81
2022-10-06T01:09:24.104Z,101484.75
2022-10-06T01:11:53.784Z,101492.88
2022-10-06T01:14:22.470Z,101492.59
2022-10-06T01:16:56.075Z,101493.41
2022-10-06T01:19:54.625Z,101496.38
2022-10-06T01:22:29.109Z,101495.31
2022-10-06T01:24:56.828Z,101497.47
2022-10-06T01:27:26.522Z,101496.13
2022-10-06T01:29:54.962Z,101507.00
2022-10-06T01:32:23.353Z,101502.66
2022-10-06T01:34:49.927Z,101502.63
2022-10-06T01:37:16.632Z,101507.78
2022-10-06T01:39:43.944Z,101511.56
2022-10-06T01:42:11.002Z,101515.63
2022-10-06T01:44:37.884Z,101517.81
2022-10-06T01:47:05.912Z,101520.78
2022-10-06T01:49:32.526Z,101524.84
2022-10-06T01:51:59.545Z,101521.63
2022-10-06T01:54:26.105Z,101521.88
2022-10-06T01:56:53.177Z,101533.81
2022-10-06T01:59:20.766Z,101530.81
2022-10-06T02:01:47.503Z,101531.34
2022-10-06T02:04:14.723Z,101525.13
2022-10-06T02:06:41.440Z,101534.88
2022-10-06T02:09:08.115Z,101534.88
2022-10-06T02:11:35.448Z,101539.50
2022-10-06T02:14:04.454Z,101540.56
2022-10-06T02:16:31.232Z,101548.16
2022-10-06T02:18:57.841Z,101553.81
2022-10-06T02:21:24.632Z,101547.03
2022-10-06T02:23:51.558Z,101551.34
2022-10-06T02:26:19.315Z,101562.75
2022-10-06T02:28:48.037Z,101561.91
2022-10-06T02:31:19.401Z,101570.31
2022-10-06T02:33:46.613Z,101574.88
2022-10-06T02:36:16.686Z,101577.88
2022-10-06T02:38:44.196Z,101576.25
2022-10-06T02:41:11.403Z,101580.03
2022-10-06T02:43:38.749Z,101584.38
2022-10-06T02:46:08.631Z,101592.19
2022-10-06T02:48:35.505Z,101594.94
2022-10-06T02:51:09.955Z,101601.13
2022-10-06T02:53:37.939Z,101614.69
2022-10-06T02:56:10.806Z,101617.94
2022-10-06T02:58:39.566Z,101623.94
2022-10-06T03:01:15.250Z,101625.28
2022-10-06T03:03:42.407Z,101632.59
2022-10-06T03:06:23.489Z,101643.72
2022-10-06T03:09:17.566Z,101652.38
2022-10-06T03:11:44.223Z,101658.59
2022-10-06T03:14:21.297Z,101655.63
2022-10-06T03:16:51.477Z,101660.78
2022-10-06T03:19:23.455Z,101673.22
2022-10-06T03:21:50.271Z,101673.22
2022-10-06T03:24:17.184Z,101681.34
2022-10-06T03:26:47.893Z,101689.50
2022-10-06T03:29:16.321Z,101690.56
2022-10-06T03:31:47.656Z,101696.00
2022-10-06T03:34:15.633Z,101699.78
2022-10-06T03:36:44.256Z,101701.41
2022-10-06T03:39:11.526Z,101705.19
2022-10-06T03:41:39.178Z,101713.59
2022-10-06T03:44:07.293Z,101714.41
2022-10-06T03:46:36.729Z,101718.47
2022-10-06T03:49:05.970Z,101725.00
2022-10-06T03:51:35.421Z,101731.22
2022-10-06T03:54:02.109Z,101727.41
2022-10-06T03:56:33.488Z,101725.78
2022-10-06T03:59:02.607Z,101726.34
2022-10-06T04:01:44.632Z,101714.66
2022-10-06T04:04:14.317Z,101728.50
2022-10-06T04:06:44.340Z,101724.16
2022-10-06T04:09:15.857Z,101726.88
2022-10-06T04:11:44.373Z,101732.28
2022-10-06T04:14:15.130Z,101737.69
2022-10-06T04:16:49.701Z,101745.56
2022-10-06T04:19:27.506Z,101759.66
2022-10-06T04:21:56.077Z,101759.94
2022-10-06T04:24:24.556Z,101756.94
2022-10-06T04:26:52.420Z,101773.47
2022-10-06T04:29:19.765Z,101771.31
2022-10-06T04:31:51.329Z,101779.44
2022-10-06T04:34:22.893Z,101776.19
2022-10-06T04:36:49.820Z,101774.53
2022-10-06T04:39:18.225Z,101774.53
2022-10-06T04:41:47.117Z,101780.81
2022-10-06T04:44:19.084Z,101791.34
2022-10-06T04:46:46.330Z,101790.81
2022-10-06T04:49:19.562Z,101795.16
2022-10-06T04:51:49.491Z,101800.56
2022-10-06T04:54:16.641Z,101803.81
2022-10-06T04:56:43.276Z,101810.88
2022-10-06T04:59:10.179Z,101808.69
2022-10-06T05:01:39.145Z,101807.03
2022-10-06T05:04:09.999Z,101813.53
2022-10-06T05:06:41.868Z,101812.47
2022-10-06T05:09:12.131Z,101819.78
2022-10-06T05:11:43.450Z,101815.47
2022-10-06T05:14:12.854Z,101824.41
2022-10-06T05:16:43.553Z,101826.56
2022-10-06T05:19:11.669Z,101832.00
2022-10-06T05:21:39.514Z,101836.31
2022-10-06T05:24:07.874Z,101832.00
2022-10-06T05:26:36.724Z,101845.53
2022-10-06T05:29:05.793Z,101843.91
2022-10-06T05:31:35.172Z,101848.75
2022-10-06T05:34:03.519Z,101854.19
2022-10-06T05:36:32.513Z,101861.50
2022-10-06T05:38:59.727Z,101859.59
2022-10-06T05:41:31.102Z,101866.09
2022-10-06T05:44:00.373Z,101865.53
2022-10-06T05:46:30.919Z,101870.97
2022-10-06T05:49:01.034Z,101878.84
2022-10-06T05:51:33.707Z,101887.78
2022-10-06T05:54:04.392Z,101887.25
2022-10-06T05:56:33.419Z,101887.25
2022-10-06T05:59:01.934Z,101894.03
2022-10-06T06:01:40.348Z,101900.81
2022-10-06T06:04:14.003Z,101907.84
2022-10-06T06:06:48.773Z,101910.56
2022-10-06T06:09:26.374Z,101924.66
2022-10-06T06:11:55.071Z,101924.66
2022-10-06T06:14:49.862Z,101923.56
2022-10-06T06:17:20.971Z,101934.94
2022-10-06T06:19:47.575Z,101934.13
2022-10-06T06:22:15.478Z,101934.94
2022-10-06T06:24:44.272Z,101936.59
2022-10-06T06:27:11.276Z,101943.63
2022-10-06T06:29:40.089Z,101953.41
2022-10-06T06:32:09.508Z,101961.56
2022-10-06T06:34:36.413Z,101962.13
2022-10-06T06:37:07.575Z,101966.50
2022-10-06T06:39:36.893Z,101969.50
2022-10-06T06:42:05.112Z,101978.47
2022-10-06T06:44:50.455Z,101978.50
2022-10-06T06:47:37.353Z,101992.34
2022-10-06T06:50:10.084Z,102004.00
2022-10-06T06:52:37.788Z,101996.97
2022-10-06T06:55:05.586Z,102002.66
2022-10-06T06:57:32.950Z,102002.97
2022-10-06T07:00:02.600Z,102008.38
2022-10-06T07:02:30.595Z,102018.69
2022-10-06T07:04:57.534Z,102022.50
2022-10-06T07:07:24.125Z,102018.69
2022-10-06T07:09:52.332Z,102029.84
2022-10-06T07:12:21.189Z,102037.69
2022-10-06T07:15:28.256Z,102033.88
2022-10-06T07:18:14.478Z,102043.69
2022-10-06T07:20:59.690Z,102046.41
2022-10-06T07:23:45.842Z,102049.94
2022-10-06T07:26:16.737Z,102052.66
2022-10-06T07:28:44.143Z,102059.44
2022-10-06T07:31:13.184Z,102064.88
2022-10-06T07:33:40.819Z,102066.47
2022-10-06T07:36:08.006Z,102075.13
2022-10-06T07:38:34.749Z,102080.56
2022-10-06T07:43:55.038Z,102088.72
2022-10-06T07:46:22.872Z,102079.47
2022-10-06T07:49:08.403Z,102092.00
2022-10-06T07:51:35.381Z,102094.75
2022-10-06T07:54:02.992Z,102091.75
2022-10-06T07:56:34.493Z,102102.88
2022-10-06T07:59:01.230Z,102106.16
2022-10-06T08:01:29.634Z,102092.53
2022-10-06T08:03:56.809Z,102096.88
2022-10-06T08:06:24.416Z,102103.44
2022-10-06T08:08:53.357Z,102105.59
2022-10-06T08:11:21.648Z,102110.47
2022-10-06T08:13:48.906Z,102114.78
2022-10-06T08:16:21.329Z,102112.06
2022-10-06T08:18:56.142Z,102119.16
2022-10-06T08:21:31.231Z,102120.53
2022-10-06T08:23:59.156Z,102123.25
2022-10-06T08:26:27.592Z,102126.97
2022-10-06T08:29:00.308Z,102119.59
2022-10-06T08:31:27.075Z,102126.34
2022-10-06T08:33:56.635Z,102122.78
2022-10-06T08:36:30.946Z,102129.81
2022-10-06T08:38:57.855Z,102132.47
2022-10-06T08:41:39.516Z,102131.66
2022-10-06T08:44:19.598Z,102134.91
2022-10-06T08:47:01.623Z,102134.91
2022-10-06T08:49:40.835Z,102141.16
2022-10-06T08:52:18.103Z,102136.28
2022-10-06T08:54:49.976Z,102145.53
2022-10-06T08:57:28.401Z,102150.44
2022-10-06T08:59:55.385Z,102145.84
2022-10-06T09:02:30.394Z,102145.03
2022-10-06T09:05:01.105Z,102150.25
2022-10-06T09:08:04.107Z,102156.81
2022-10-06T09:10:49.256Z,102152.31
2022-10-06T09:13:32.063Z,102158.84
2022-10-06T09:16:07.237Z,102158.84
2022-10-06T09:19:03.782Z,102149.06
2022-10-06T09:21:40.058Z,102155.56
2022-10-06T09:24:13.839Z,102156.13
2022-10-06T09:26:46.352Z,102160.44
2022-10-06T09:29:14.106Z,102165.91
2022-10-06T09:31:43.698Z,102170.50
2022-10-06T09:34:25.736Z,102172.41
2022-10-06T09:37:01.753Z,102174.78
2022-10-06T09:39:37.010Z,102177.19
2022-10-06T09:42:35.501Z,102180.88
2022-10-06T09:45:04.985Z,102176.56
2022-10-06T09:47:40.770Z,102171.66
2022-10-06T09:50:21.778Z,102176.88
2022-10-06T09:52:57.592Z,102175.31
2022-10-06T09:55:29.242Z,102174.88
2022-10-06T09:57:57.778Z,102161.09
2022-10-06T10:00:32.920Z,102168.50
2022-10-06T10:03:08.038Z,102163.50
2022-10-06T10:05:45.799Z,102156.75
2022-10-06T10:08:25.941Z,102148.50
2022-10-06T10:11:37.961Z,102154.28
2022-10-06T10:14:15.058Z,102150.00
2022-10-06T10:16:42.482Z,102140.78
2022-10-06T10:19:33.112Z,102144.13
2022-10-06T10:22:00.051Z,102132.81
2022-10-06T10:24:48.244Z,102129.34
2022-10-06T10:27:23.625Z,102134.66
2022-10-06T10:30:01.656Z,102141.59
2022-10-06T10:32:37.480Z,102142.25
2022-10-06T10:35:22.443Z,102155.09
2022-10-06T10:38:05.149Z,102149.72
2022-10-06T10:40:43.125Z,102153.38
2022-10-06T10:43:12.470Z,102147.56
2022-10-06T10:45:50.363Z,102153.59
2022-10-06T10:48:46.344Z,102151.66
2022-10-06T10:51:20.242Z,102149.06
2022-10-06T10:54:01.186Z,102158.09
2022-10-06T10:56:30.977Z,102161.34
2022-10-06T10:59:07.149Z,102157.16
2022-10-06T11:01:50.067Z,102144.28
2022-10-06T11:04:16.931Z,102148.13
2022-10-06T11:06:54.190Z,102150.31
2022-10-06T11:09:26.685Z,102138.97
2022-10-06T11:12:10.616Z,102137.09
2022-10-06T11:14:50.876Z,102139.72
2022-10-06T11:17:44.793Z,102141.19
2022-10-06T11:20:22.188Z,102137.47
2022-10-06T11:23:00.315Z,102130.00
2022-10-06T11:25:35.035Z,102132.06
2022-10-06T11:28:11.881Z,102134.72
2022-10-06T11:31:09.902Z,102136.97
2022-10-06T11:33:49.386Z,102125.63
2022-10-06T11:36:29.883Z,102123.28
2022-10-06T11:39:06.967Z,102122.63
2022-10-06T11:41:44.019Z,102112.28
2022-10-06T11:44:19.966Z,102123.50
2022-10-06T11:47:45.165Z,102119.16
2022-10-06T11:50:37.863Z,102113.88
2022-10-06T11:53:05.915Z,102113.00
2022-10-06T11:55:32.918Z,102110.22
2022-10-06T11:58:23.568Z,102107.84
2022-10-06T12:00:54.615Z,102105.19
2022-10-06T12:03:33.233Z,102098.06
2022-10-06T12:06:00.189Z,102099.09
2022-10-06T12:08:38.370Z,102092.06
2022-10-06T12:11:41.115Z,102094.19
2022-10-06T12:17:27.822Z,102086.09
2022-10-06T12:20:19.197Z,102083.19
2022-10-06T12:22:52.523Z,102088.66
2022-10-06T12:25:22.273Z,102090.53
2022-10-06T12:28:17.027Z,102091.34
2022-10-06T12:31:04.942Z,102090.38
2022-10-06T12:33:38.190Z,102095.31
2022-10-06T12:36:16.256Z,102083.13
2022-10-06T12:39:05.087Z,102089.63
2022-10-06T12:41:56.511Z,102088.69
2022-10-06T12:44:38.219Z,102088.31
2022-10-06T12:47:21.984Z,102087.06
2022-10-06T12:49:55.371Z,102081.84
2022-10-06T12:52:52.181Z,102081.53
2022-10-06T12:55:32.175Z,102085.06
2022-10-06T12:57:59.121Z,102086.41
2022-10-06T13:00:42.511Z,102082.44
2022-10-06T13:03:18.465Z,102078.00
2022-10-06T13:05:51.515Z,102077.22
2022-10-06T13:08:23.236Z,102088.03
2022-10-06T13:10:50.501Z,102079.41
2022-10-06T13:13:25.045Z,102077.22
2022-10-06T13:15:55.968Z,102081.63
2022-10-06T13:18:23.371Z,102073.16
2022-10-06T13:20:55.213Z,102071.56
2022-10-06T13:23:29.319Z,102079.44
2022-10-06T13:26:00.242Z,102073.94
2022-10-06T13:28:33.037Z,102072.94
2022-10-06T13:31:17.255Z,102071.31
2022-10-06T13:33:46.001Z,102060.16
2022-10-06T13:36:13.446Z,102054.47
2022-10-06T13:38:41.845Z,102054.09
2022-10-06T13:41:29.701Z,102065.47
2022-10-06T13:43:56.266Z,102058.25
2022-10-06T13:46:26.755Z,102065.28
2022-10-06T13:49:03.446Z,102064.38
2022-10-06T13:51:32.423Z,102060.19
2022-10-06T13:54:01.454Z,102064.63
2022-10-06T13:56:39.156Z,102069.34
2022-10-06T13:59:31.056Z,102061.09
2022-10-06T14:02:00.586Z,102064.84
2022-10-06T14:04:27.150Z,102071.41
2022-10-06T14:06:58.112Z,102068.38
2022-10-06T14:09:31.191Z,102057.72
2022-10-06T14:12:20.439Z,102058.00
2022-10-06T14:14:49.733Z,102053.66
2022-10-06T14:17:25.653Z,102048.97
2022-10-06T14:19:52.410Z,102051.38
2022-10-06T14:22:38.317Z,102055.63
2022-10-06T14:25:12.305Z,102051.19
2022-10-06T14:27:38.892Z,102048.59
2022-10-06T14:30:06.113Z,102052.19
2022-10-06T14:32:32.732Z,102044.34
2022-10-06T14:34:59.375Z,102041.75
2022-10-06T14:37:25.913Z,102052.53
2022-10-06T14:39:53.953Z,102045.00
2022-10-06T14:42:24.244Z,102041.84
2022-10-06T14:44:50.689Z,102045.09
2022-10-06T14:47:17.363Z,102039.56
2022-10-06T14:49:45.182Z,102039.03
2022-10-06T14:52:12.062Z,102040.34
2022-10-06T14:54:39.018Z,102039.13
2022-10-06T14:57:05.707Z,102039.59
2022-10-06T14:59:32.654Z,102032.88
2022-10-06T15:01:59.232Z,102038.91
2022-10-06T15:04:27.694Z,102039.13
2022-10-06T15:07:12.986Z,102029.84
2022-10-06T15:09:39.645Z,102028.00
2022-10-06T15:12:06.340Z,102026.16
2022-10-06T15:14:35.185Z,102025.59
2022-10-06T15:17:02.236Z,102019.53
2022-10-06T15:19:28.824Z,102026.03
2022-10-06T15:21:56.180Z,102024.75
2022-10-06T15:24:22.745Z,102018.09
2022-10-06T15:27:07.861Z,102021.72
2022-10-06T15:29:37.440Z,102018.75
2022-10-06T15:32:06.530Z,102022.09
2022-10-06T15:34:34.642Z,102019.53
2022-10-06T15:37:01.414Z,102019.09
2022-10-06T15:39:30.519Z,102014.22
2022-10-06T15:41:58.005Z,102013.16
2022-10-06T15:44:24.685Z,102008.59
2022-10-06T15:46:56.045Z,102011.59
2022-10-06T15:49:26.635Z,102014.34
2022-10-06T15:51:56.547Z,102015.19
2022-10-06T15:54:37.962Z,102011.69
2022-10-06T15:57:08.556Z,102018.84
2022-10-06T15:59:35.475Z,102021.03
2022-10-06T16:02:09.702Z,102026.53
2022-10-06T16:04:38.322Z,102017.56
2022-10-06T16:07:19.025Z,102021.94
2022-10-06T16:09:47.743Z,102017.38
2022-10-06T16:12:17.092Z,102022.84
2022-10-06T16:14:44.103Z,102020.69
2022-10-06T16:17:11.571Z,102013.38
2022-10-06T16:19:38.549Z,102016.66
2022-10-06T16:22:07.085Z,102013.16
2022-10-06T16:24:34.128Z,102019.94
2022-10-06T16:27:00.787Z,102019.97
2022-10-06T16:29:28.069Z,102021.88
2022-10-06T16:31:55.137Z,102017.53
2022-10-06T16:34:22.747Z,102025.44
2022-10-06T16:36:49.449Z,102021.38
2022-10-06T16:39:23.510Z,102023.84
2022-10-06T16:41:51.176Z,102019.78
2022-10-06T16:44:18.215Z,102015.16
2022-10-06T16:46:45.245Z,102030.09
2022-10-06T16:49:12.292Z,102023.84
2022-10-06T16:51:41.542Z,102019.50
2022-10-06T16:54:10.653Z,102022.50
2022-10-06T16:56:46.218Z,102030.69
2022-10-06T16:59:21.004Z,102023.06
2022-10-06T17:01:48.823Z,102026.28
2022-10-06T17:04:18.220Z,102023.59
2022-10-06T17:06:56.067Z,102030.66
2022-10-06T17:09:25.104Z,102025.75
2022-10-06T17:11:54.798Z,102034.72
2022-10-06T17:14:22.675Z,102035.22
2022-10-06T17:16:51.905Z,102038.19
2022-10-06T17:19:20.647Z,102042.53
2022-10-06T17:21:50.488Z,102041.44
2022-10-06T17:24:19.842Z,102043.06
2022-10-06T17:26:49.359Z,102047.69
2022-10-06T17:29:18.969Z,102039.28
2022-10-06T17:31:46.844Z,102048.50
2022-10-06T17:34:20.287Z,102050.63
2022-10-06T17:36:50.550Z,102053.03
2022-10-06T17:39:19.458Z,102047.31
2022-10-06T17:41:47.744Z,102059.22
2022-10-06T17:44:22.742Z,102054.06
2022-10-06T17:46:51.821Z,102055.91
2022-10-06T17:49:20.680Z,102061.03
2022-10-06T17:51:47.956Z,102062.91
2022-10-06T17:54:16.927Z,102056.38
2022-10-06T17:56:46.002Z,102046.59
2022-10-06T17:59:18.607Z,102055.75
2022-10-06T18:01:45.382Z,102054.94
2022-10-06T18:04:16.201Z,102059.53
2022-10-06T18:06:44.495Z,102051.38
2022-10-06T18:09:11.407Z,102054.63
2022-10-06T18:11:39.670Z,102049.41
2022-10-06T18:14:07.620Z,102057.28
2022-10-06T18:16:55.678Z,102047.47
2022-10-06T18:19:26.388Z,102049.31
2022-10-06T18:21:56.551Z,102046.38
2022-10-06T18:24:26.024Z,102044.13
2022-10-06T18:26:54.848Z,102046.78
2022-10-06T18:29:23.820Z,102047.31
2022-10-06T18:31:52.673Z,102043.50
2022-10-06T18:37:06.247Z,102049.09
2022-10-06T18:39:33.490Z,102045.81
2022-10-06T18:42:05.345Z,102049.03
2022-10-06T18:44:50.593Z,102044.38
2022-10-06T18:47:35.855Z,102042.75
2022-10-06T18:50:02.641Z,102041.63
2022-10-06T18:52:29.178Z,102041.34
2022-10-06T18:54:55.778Z,102042.09
2022-10-06T18:57:27.287Z,102041.25
2022-10-06T18:59:55.009Z,102041.50
2022-10-06T19:02:21.758Z,102042.56
2022-10-06T19:04:48.482Z,102041.41
2022-10-06T19:07:15.181Z,102047.34
2022-10-06T19:09:46.407Z,102047.81
2022-10-06T19:12:14.081Z,102054.00
2022-10-06T19:14:47.108Z,102043.44
2022-10-06T19:17:14.906Z,102052.88
2022-10-06T19:19:56.963Z,102043.38
2022-10-06T19:22:24.997Z,102054.13
2022-10-06T19:24:52.383Z,102057.34
2022-10-06T19:27:24.294Z,102053.53
2022-10-06T19:29:56.629Z,102055.91
2022-10-06T19:32:26.603Z,102056.69
2022-10-06T19:34:54.869Z,102060.38
2022-10-06T19:37:21.741Z,102061.59
2022-10-06T19:39:50.196Z,102063.22
2022-10-06T19:42:37.579Z,102063.22
2022-10-06T19:45:05.737Z,102069.38
2022-10-06T19:47:32.453Z,102068.81
2022-10-06T19:50:03.683Z,102073.03
2022-10-06T19:52:33.266Z,102071.41
2022-10-06T19:55:04.652Z,102070.28
2022-10-06T19:57:32.520Z,102077.59
2022-10-06T19:59:59.163Z,102071.63
2022-10-06T20:02:25.893Z,102081.00
2022-10-06T20:04:52.448Z,102085.28
2022-10-06T20:07:21.702Z,102079.34
2022-10-06T20:09:48.645Z,102079.81
2022-10-06T20:12:19.739Z,102074.91
2022-10-06T20:14:49.903Z,102076.22
2022-10-06T20:17:17.543Z,102077.28
2022-10-06T20:19:46.596Z,102077.53
2022-10-06T20:22:13.488Z,102082.59
2022-10-06T20:24:40.218Z,102067.72
2022-10-06T20:27:06.834Z,102073.13
2022-10-06T20:29:34.720Z,102071.75
2022-10-06T20:32:01.600Z,102066.84
2022-10-06T20:34:33.349Z,102070.53
2022-10-06T20:37:02.539Z,102072.34
2022-10-06T20:39:52.343Z,102071.66
2022-10-06T20:42:19.797Z,102065.06
2022-10-06T20:44:46.682Z,102071.94
2022-10-06T20:47:13.951Z,102072.50
2022-10-06T20:49:42.305Z,102067.13
2022-10-06T20:52:09.751Z,102074.13
2022-10-06T20:54:37.214Z,102070.63
2022-10-06T20:57:06.090Z,102068.16
2022-10-06T20:59:36.508Z,102064.66
2022-10-06T21:02:04.493Z,102064.31
2022-10-06T21:04:31.041Z,102056.97
2022-10-06T21:06:57.797Z,102063.69
2022-10-06T21:09:24.924Z,102059.09
2022-10-06T21:11:51.816Z,102054.19
2022-10-06T21:14:18.608Z,102049.50
2022-10-06T21:16:46.931Z,102049.63
2022-10-06T21:19:16.636Z,102050.41
2022-10-06T21:21:45.887Z,102047.97
2022-10-06T21:24:12.971Z,102042.38
2022-10-06T21:26:42.197Z,102051.22
2022-10-06T21:29:10.711Z,102055.34
2022-10-06T21:31:37.322Z,102049.38
2022-10-06T21:34:05.011Z,102044.34
2022-10-06T21:36:32.120Z,102041.94
2022-10-06T21:39:00.971Z,102041.34
2022-10-06T21:41:35.930Z,102038.06
2022-10-06T21:44:03.936Z,102039.63
2022-10-06T21:46:36.204Z,102027.78
2022-10-06T21:49:05.647Z,102042.91
2022-10-06T21:51:33.190Z,102033.91
2022-10-06T21:54:00.987Z,102036.28
2022-10-06T21:56:30.143Z,102032.50
2022-10-06T21:58:57.652Z,102034.03
2022-10-06T22:01:27.924Z,102044.09
2022-10-06T22:03:56.718Z,102034.25
2022-10-06T22:06:23.809Z,102035.88
2022-10-06T22:08:50.534Z,102025.09
2022-10-06T22:11:22.588Z,102028.75
2022-10-06T22:13:52.792Z,102028.66
2022-10-06T22:16:22.346Z,102026.34
2022-10-06T22:18:49.624Z,102019.44
2022-10-06T22:21:26.871Z,102026.13
2022-10-06T22:23:56.015Z,102027.31
2022-10-06T22:26:23.806Z,102030.56
2022-10-06T22:28:52.014Z,102019.31
2022-10-06T22:31:23.335Z,102031.63
2022-10-06T22:33:55.480Z,102017.47
2022-10-06T22:36:22.978Z,102017.47
2022-10-06T22:38:50.206Z,102010.47
2022-10-06T22:41:17.259Z,102013.03
2022-10-06T22:43:43.997Z,102010.50
2022-10-06T22:46:11.822Z,102014.94
2022-10-06T22:48:38.938Z,102006.78
2022-10-06T22:51:06.591Z,102003.81
2022-10-06T22:53:33.998Z,102003.00
2022-10-06T22:56:01.919Z,101988.25
2022-10-06T22:58:28.725Z,101991.75
2022-10-06T23:00:55.439Z,101983.91
2022-10-06T23:03:22.453Z,101988.25
2022-10-06T23:05:57.478Z,101987.19
2022-10-06T23:08:25.155Z,101983.22
2022-10-06T23:10:51.853Z,101985.94
2022-10-06T23:13:19.533Z,101988.38
2022-10-06T23:15:46.624Z,101981.03
2022-10-06T23:18:14.066Z,101983.94
2022-10-06T23:20:40.627Z,101983.13
2022-10-06T23:23:07.288Z,101986.41
2022-10-06T23:25:37.973Z,101982.66
2022-10-06T23:28:04.896Z,101978.22
2022-10-06T23:30:34.464Z,101977.53
2022-10-06T23:33:01.073Z,101977.88
2022-10-06T23:35:27.720Z,101984.22
2022-10-06T23:37:54.398Z,101976.59
2022-10-06T23:40:20.902Z,101975.66
2022-10-06T23:42:47.491Z,101978.38
2022-10-06T23:45:14.004Z,101973.78
2022-10-06T23:47:40.549Z,101978.00
2022-10-06T23:50:07.772Z,101967.25
2022-10-06T23:52:34.431Z,101966.53
2022-10-06T23:55:01.000Z,101963.03
2022-10-06T23:57:27.630Z,101960.22
2022-10-06T23:59:54.243Z,101964.78
